Flight Track Log - Related Links

Times and Time Zones

All times are in EDT time to prevent confusion due to time zone crossing. See the UAL33 flight status page for this flight to view local times or setup timezone preferences in your user account.

Time Position Orientation Groundspeed Altitude Reporting Facility
EDT Latitude Longitude Course Direction KTS MPH feet Rate Location/Type
Mon 05:41:32 PM 29.9603 -95.3450 169° South 163 188 800  Level FlightAware ADS-B
Mon 05:41:35 PM 29.9581 -95.3442 163° South 162 186 900 2,625 Climbing FlightAware ADS-B
Mon 05:41:48 PM 29.9483 -95.3459 189° South 164 189 1,500 2,667 Climbing FlightAware ADS-B
Mon 05:41:53 PM 29.9450 -95.3485 214° Southwest 174 200 1,700 1,500 Climbing FlightAware ADS-B
Mon 05:42:00 PM 29.9414 -95.3535 230° Southwest 185 213 1,800 1,000 Climbing FlightAware ADS-B
Mon 05:42:05 PM 29.9395 -95.3584 246° West 196 226 1,900 1,636 Climbing FlightAware ADS-B
Mon 05:42:11 PM 29.9385 -95.3647 260° West 210 242 2,100 1,800 Climbing FlightAware ADS-B
Mon 05:42:15 PM 29.9385 -95.3692 270° West 219 252 2,200 2,000 Climbing FlightAware ADS-B
Mon 05:42:20 PM 29.9395 -95.3751 281° West 227 261 2,400 2,667 Climbing FlightAware ADS-B
Mon 05:42:24 PM 29.9410 -95.3795 291° West 233 268 2,600 2,571 Climbing FlightAware ADS-B
Mon 05:42:27 PM 29.9428 -95.3836 297° West 240 276 2,700 1,714 Climbing FlightAware ADS-B
Mon 05:42:31 PM 29.9449 -95.3870 305° West 245 282 2,800 2,000 Climbing FlightAware ADS-B
Mon 05:42:36 PM 29.9491 -95.3921 314° West 255 293 3,000 2,250 Climbing FlightAware ADS-B
Mon 05:42:39 PM 29.9523 -95.3951 321° Northwest 262 302 3,100 2,571 Climbing FlightAware ADS-B
Mon 05:42:43 PM 29.9559 -95.3976 329° Northwest 267 307 3,300 2,667 Climbing FlightAware ADS-B
Mon 05:42:48 PM 29.9618 -95.4009 334° Northwest 275 316 3,500 2,000 Climbing FlightAware ADS-B
Mon 05:42:52 PM 29.9668 -95.4026 344° North 279 321 3,600 1,714 Climbing FlightAware ADS-B
Mon 05:42:55 PM 29.9711 -95.4036 349° North 282 325 3,700 1,000 Climbing FlightAware ADS-B
Mon 05:42:58 PM 29.9751 -95.4041 354° North 285 328 3,700 857 Level FlightAware ADS-B
Mon 05:43:02 PM 29.9799 -95.4042 359° North 287 330 3,800 1,714 Climbing FlightAware ADS-B
Mon 05:43:05 PM 29.9846 -95.4037 North 288 331 3,900 750 Climbing FlightAware ADS-B
Mon 05:43:10 PM 29.9912 -95.4021 12° North 289 333 3,900 667 Level FlightAware ADS-B
Mon 05:43:14 PM 29.9965 -95.4001 18° North 289 333 4,000 545 Climbing FlightAware ADS-B
Mon 05:43:21 PM 30.0045 -95.3964 22° Northeast 286 329 4,000  Level FlightAware ADS-B
Mon 05:43:37 PM 30.0241 -95.3865 24° Northeast 284 327 4,000  Level FlightAware ADS-B
Mon 05:43:53 PM 30.0429 -95.3772 23° Northeast 284 327 4,000  Level FlightAware ADS-B
Mon 05:44:08 PM 30.0614 -95.3679 24° Northeast 287 330 4,000 -200 Level FlightAware ADS-B
Mon 05:44:23 PM 30.0797 -95.3586 24° Northeast 287 330 3,900  Descending FlightAware ADS-B
Mon 05:44:39 PM 30.0986 -95.3490 24° Northeast 286 329 4,000 194 Climbing FlightAware ADS-B
Mon 05:44:54 PM 30.1176 -95.3393 24° Northeast 285 328 4,000 387 Level FlightAware ADS-B
Mon 05:45:10 PM 30.1366 -95.3298 23° Northeast 288 331 4,200 1,935 Climbing FlightAware ADS-B
Mon 05:45:25 PM 30.1554 -95.3203 24° Northeast 287 330 5,000 3,391 Climbing FlightAware ADS-B
Mon 05:45:33 PM 30.1644 -95.3160 22° Northeast 284 327 5,500 3,500 Climbing FlightAware ADS-B
Mon 05:45:37 PM 30.1693 -95.3140 19° North 285 328 5,700 3,692 Climbing FlightAware ADS-B
Mon 05:45:46 PM 30.1808 -95.3100 17° North 287 330 6,300 4,000 Climbing FlightAware ADS-B
Mon 05:45:52 PM 30.1891 -95.3073 16° North 289 333 6,700 3,652 Climbing FlightAware ADS-B
Mon 05:46:09 PM 30.2110 -95.3004 15° North 294 338 7,700 3,455 Climbing FlightAware ADS-B
Mon 05:46:25 PM 30.2320 -95.2937 15° North 299 344 8,600 3,097 Climbing FlightAware ADS-B
Mon 05:46:40 PM 30.2525 -95.2869 16° North 306 352 9,300 3,067 Climbing FlightAware ADS-B
Mon 05:47:10 PM 30.2953 -95.2726 16° North 317 365 10,900 3,344 Climbing FlightAware ADS-B
Mon 05:47:41 PM 30.3387 -95.2574 17° North 324 373 12,700 3,484 Climbing FlightAware ADS-B
Mon 05:48:12 PM 30.3831 -95.2416 17° North 331 381 14,500 2,903 Climbing FlightAware ADS-B
Mon 05:48:43 PM 30.4299 -95.2252 17° North 347 399 15,700 2,361 Climbing FlightAware ADS-B
Mon 05:49:13 PM 30.4787 -95.2078 17° North 367 422 16,900 2,441 Climbing FlightAware ADS-B
Mon 05:49:42 PM 30.5260 -95.1911 17° North 385 443 18,100 2,100 Climbing FlightAware ADS-B
Mon 05:49:53 PM 30.5445 -95.1833 20° North 398 458 18,300 1,000 Climbing FlightAware ADS-B
Mon 05:50:00 PM 30.5565 -95.1773 23° Northeast 407 468 18,400 1,286 Climbing FlightAware ADS-B
Mon 05:50:07 PM 30.5689 -95.1703 26° Northeast 415 478 18,600 1,500 Climbing FlightAware ADS-B
Mon 05:50:20 PM 30.5908 -95.1555 30° Northeast 427 491 18,900 1,395 Climbing FlightAware ADS-B
Mon 05:50:50 PM 30.6418 -95.1162 34° Northeast 452 520 19,600 1,400 Climbing FlightAware ADS-B
Mon 05:51:20 PM 30.6962 -95.0748 33° Northeast 476 548 20,300 1,400 Climbing FlightAware ADS-B
Mon 05:51:50 PM 30.7530 -95.0314 33° Northeast 493 567 21,000 1,742 Climbing FlightAware ADS-B
Mon 05:52:22 PM 30.8143 -94.9847 33° Northeast 501 577 22,100 2,032 Climbing FlightAware ADS-B
Mon 05:52:52 PM 30.8728 -94.9398 33° Northeast 507 583 23,100 1,935 Climbing FlightAware ADS-B
Mon 05:53:24 PM 30.9353 -94.8919 33° Northeast 515 593 24,100 1,742 Climbing FlightAware ADS-B
Mon 05:53:54 PM 30.9952 -94.8456 34° Northeast 520 598 24,900 1,700 Climbing FlightAware ADS-B
Mon 05:54:24 PM 31.0561 -94.7988 33° Northeast 524 603 25,800 1,700 Climbing FlightAware ADS-B
Mon 05:54:54 PM 31.1179 -94.7513 33° Northeast 528 608 26,600 1,500 Climbing FlightAware ADS-B
Mon 05:55:24 PM 31.1793 -94.7038 33° Northeast 531 611 27,300 2,032 Climbing FlightAware ADS-B
Mon 05:55:56 PM 31.2459 -94.6576 31° Northeast 521 600 28,700 2,476 Climbing FlightAware ADS-B
Mon 05:56:27 PM 31.3098 -94.6147 30° Northeast 516 594 29,900 2,129 Climbing FlightAware ADS-B
Mon 05:56:58 PM 31.3735 -94.5714 30° Northeast 516 594 30,900 2,032 Climbing FlightAware ADS-B
Mon 05:57:29 PM 31.4380 -94.5271 30° Northeast 512 589 32,000 2,226 Climbing FlightAware ADS-B
Mon 05:58:00 PM 31.4997 -94.4844 31° Northeast 507 583 33,200 2,164 Climbing FlightAware ADS-B
Mon 05:58:30 PM 31.5601 -94.4423 31° Northeast 506 582 34,200 1,935 Climbing FlightAware ADS-B
Mon 05:59:02 PM 31.6246 -94.3972 31° Northeast 503 579 35,200 1,810 Climbing FlightAware ADS-B
Mon 05:59:33 PM 31.6860 -94.3542 31° Northeast 501 577 36,100 1,692 Climbing FlightAware ADS-B
Mon 06:00:20 PM 31.7797 -94.2883 31° Northeast 501 577 37,400 1,481 Climbing FlightAware ADS-B
Mon 06:00:54 PM 31.8481 -94.2403 31° Northeast 501 577 38,100 1,254 Climbing FlightAware ADS-B
Mon 06:01:27 PM 31.9141 -94.1939 31° Northeast 501 577 38,800 1,235 Climbing FlightAware ADS-B
Mon 06:02:02 PM 31.9828 -94.1457 31° Northeast 499 574 39,500 1,030 Climbing FlightAware ADS-B
Mon 06:03:06 PM 32.1100 -94.0560 31° Northeast 498 573 40,500 692 Climbing FlightAware ADS-B
Mon 06:03:46 PM 32.1760 -94.0090 31° Northeast 498 573 40,700 158 Climbing FlightAware ADS-B
Mon 06:04:22 PM 32.2370 -93.9660 31° Northeast 498 573 40,700  Level FlightAware ADS-B
Mon 06:05:23 PM 32.3390 -93.8930 31° Northeast 498 573 40,700  Level FlightAware ADS-B
Mon 06:05:59 PM 32.4000 -93.8500 31° Northeast 498 573 40,700  Level FlightAware ADS-B
Mon 06:06:47 PM 32.4800 -93.7930 31° Northeast 498 573 40,700  Level FlightAware ADS-B
Mon 06:07:24 PM 32.5420 -93.7490 31° Northeast 498 573 40,700  Level FlightAware ADS-B
Mon 06:08:12 PM 32.6230 -93.6910 31° Northeast 498 573 40,700  Level FlightAware ADS-B
Mon 06:08:48 PM 32.6830 -93.6480 31° Northeast 498 573 40,700  Level FlightAware ADS-B
Mon 06:09:37 PM 32.7660 -93.5900 30° Northeast 498 573 40,700  Level FlightAware ADS-B
Mon 06:10:13 PM 32.8260 -93.5460 32° Northeast 498 573 40,700  Level FlightAware ADS-B
Mon 06:10:59 PM 32.9030 -93.4910 31° Northeast 498 573 40,700  Level FlightAware ADS-B
Mon 06:11:35 PM 32.9640 -93.4480 31° Northeast 498 573 40,700 194 Level FlightAware ADS-B
Mon 06:12:32 PM 33.2020 -93.2750 31° Northeast 493 567 41,000 194 Climbing FlightAware ADS-B
Mon 06:13:08 PM 33.2620 -93.2320 31° Northeast 493 567 41,000  Level FlightAware ADS-B
Mon 06:13:45 PM 33.3230 -93.1880 31° Northeast 493 567 41,000  Level FlightAware ADS-B
Mon 06:14:34 PM 33.4050 -93.1290 31° Northeast 493 567 41,000  Level FlightAware ADS-B
Mon 06:15:11 PM 33.4660 -93.0850 31° Northeast 493 567 41,000  Level FlightAware ADS-B
Mon 06:16:00 PM 33.5480 -93.0260 31° Northeast 493 567 41,000  Level FlightAware ADS-B
Mon 06:16:36 PM 33.6070 -92.9830 31° Northeast 493 567 41,000  Level FlightAware ADS-B
Mon 06:18:01 PM 33.7490 -92.8810 31° Northeast 493 567 41,000  Level FlightAware ADS-B
Mon 06:18:37 PM 33.8080 -92.8380 31° Northeast 493 567 41,000  Level FlightAware ADS-B
Mon 06:19:15 PM 33.8720 -92.7920 31° Northeast 493 567 41,000  Level FlightAware ADS-B
Mon 06:19:51 PM 33.9310 -92.7490 31° Northeast 493 567 41,000  Level FlightAware ADS-B
Mon 06:21:03 PM 34.0510 -92.6620 31° Northeast 493 567 41,000  Level FlightAware ADS-B
Mon 06:21:40 PM 34.1130 -92.6180 30° Northeast 493 567 41,000  Level FlightAware ADS-B
Mon 06:22:54 PM 34.2039 -92.0639 30° Northeast 500 575 41,000  Level Kansas City Center
Mon 06:23:56 PM 34.3214 -91.9192 45° Northeast 504 580 41,000  Level Kansas City Center
Mon 06:29:23 PM 34.9650 -91.5240 45° Northeast 492 566 41,000  Level FlightAware ADS-B
Mon 06:30:37 PM 35.1070 -91.5060 North 492 566 41,000  Level FlightAware ADS-B
Mon 06:31:25 PM 35.1990 -91.4940 North 492 566 41,000  Level FlightAware ADS-B
Mon 06:32:01 PM 35.3250 -91.4730 North 491 565 41,000  Level FlightAware ADS-B
Mon 06:32:49 PM 35.4210 -91.4600 North 489 563 41,000  Level FlightAware ADS-B
Mon 06:33:31 PM 35.5260 -91.4440 North 486 559 41,000  Level FlightAware ADS-B
Mon 06:34:11 PM 35.6140 -91.4310 North 482 555 41,000  Level FlightAware ADS-B
Mon 06:34:55 PM 35.7120 -91.4170 North 481 554 41,000  Level FlightAware ADS-B
Mon 06:35:29 PM 35.7870 -91.4060 North 483 556 41,000  Level FlightAware ADS-B
Mon 06:36:09 PM 35.8760 -91.3940 North 483 556 41,000  Level FlightAware ADS-B
Mon 06:36:53 PM 35.9750 -91.3790 North 485 558 41,000  Level FlightAware ADS-B
Mon 06:37:28 PM 36.0520 -91.3680 North 483 556 41,000  Level FlightAware ADS-B
Mon 06:38:09 PM 36.1430 -91.3550 North 486 559 41,000  Level FlightAware ADS-B
Mon 06:38:53 PM 36.2440 -91.3400 North 488 562 41,000  Level FlightAware ADS-B
Mon 06:39:37 PM 36.3410 -91.3260 North 490 564 41,000  Level FlightAware ADS-B
Mon 06:40:17 PM 36.4310 -91.3130 North 491 565 41,000  Level FlightAware ADS-B
Mon 06:41:01 PM 36.5320 -91.2980 North 491 565 41,000  Level FlightAware ADS-B
Mon 06:41:41 PM 36.6210 -91.2850 North 493 567 41,000  Level FlightAware ADS-B
Mon 06:42:19 PM 36.7090 -91.2720 North 499 574 41,000  Level FlightAware ADS-B
Mon 06:42:57 PM 36.7950 -91.2590 North 497 572 41,000  Level FlightAware ADS-B
Mon 06:43:41 PM 36.8960 -91.2440 North 493 567 41,000  Level FlightAware ADS-B
Mon 06:44:15 PM 36.9730 -91.2330 North 492 566 41,000  Level FlightAware ADS-B
Mon 06:45:06 PM 37.0870 -91.2160 North 492 566 41,000  Level FlightAware ADS-B
Mon 06:45:45 PM 37.1760 -91.2030 North 492 566 41,000  Level FlightAware ADS-B
Mon 06:46:13 PM 37.2400 -91.1930 North 490 564 41,000  Level FlightAware ADS-B
Mon 06:46:59 PM 37.3430 -91.1780 North 491 565 41,000  Level FlightAware ADS-B
Mon 06:47:37 PM 37.4270 -91.1650 North 491 565 41,000  Level FlightAware ADS-B
Mon 06:48:37 PM 37.5490 -91.1480 North 492 566 41,000  Level FlightAware ADS-B
Mon 06:49:13 PM 37.6180 -91.1390 North 492 566 41,000  Level FlightAware ADS-B
Mon 06:50:01 PM 37.7100 -91.1270 North 492 566 41,000  Level FlightAware ADS-B
Mon 06:50:41 PM 37.8470 -91.1020 North 494 568 41,000  Level FlightAware ADS-B
Mon 06:51:21 PM 37.9340 -91.0880 North 492 566 41,000  Level FlightAware ADS-B
Mon 06:51:53 PM 38.0090 -91.0770 North 490 564 41,000  Level FlightAware ADS-B
Mon 06:52:40 PM 38.1140 -91.0610 North 488 562 41,000  Level FlightAware ADS-B
Mon 06:53:21 PM 38.2030 -91.0470 North 488 562 41,000  Level FlightAware ADS-B
Mon 06:53:58 PM 38.2850 -91.0350 North 489 563 41,000  Level FlightAware ADS-B
Mon 06:54:43 PM 38.3770 -91.0220 North 489 563 41,000  Level FlightAware ADS-B
Mon 06:55:19 PM 38.4460 -91.0130 North 489 563 41,000  Level FlightAware ADS-B
Mon 06:56:13 PM 38.5910 -90.9870 North 488 562 41,000  Level FlightAware ADS-B
Mon 06:56:54 PM 38.6850 -90.9690 North 491 565 41,000  Level FlightAware ADS-B
Mon 06:57:36 PM 38.7650 -90.9450 13° North 491 565 41,000  Level FlightAware ADS-B
Mon 06:58:16 PM 38.8600 -90.8820 27° Northeast 496 571 41,000  Level FlightAware ADS-B
Mon 06:59:10 PM 38.9730 -90.8200 23° Northeast 496 571 41,000  Level FlightAware ADS-B
Mon 06:59:48 PM 39.0420 -90.7830 23° Northeast 496 571 41,000 -1,096 Level FlightAware ADS-B
Mon 07:00:54 PM 39.1930 -90.7000 23° Northeast 507 583 39,100 -1,607 Descending FlightAware ADS-B
Mon 07:01:40 PM 39.2920 -90.6460 23° Northeast 508 585 38,000 -1,605 Descending FlightAware ADS-B
Mon 07:02:20 PM 39.3810 -90.5970 23° Northeast 517 595 36,800 -1,500 Descending FlightAware ADS-B
Mon 07:02:56 PM 39.4600 -90.5530 23° Northeast 508 585 36,100 -1,275 Descending FlightAware ADS-B
Mon 07:03:40 PM 39.5520 -90.5020 23° Northeast 506 582 35,100 -1,643 Descending FlightAware ADS-B
Mon 07:04:20 PM 39.6390 -90.4540 23° Northeast 514 592 33,800 -1,500 Descending FlightAware ADS-B
Mon 07:05:04 PM 39.7410 -90.3980 23° Northeast 528 608 33,000 -571 Descending FlightAware ADS-B
Mon 07:05:44 PM 39.8260 -90.3500 23° Northeast 524 603 33,000  Level FlightAware ADS-B
Mon 07:06:28 PM 39.9260 -90.2940 23° Northeast 521 600 33,000  Level FlightAware ADS-B
Mon 07:07:08 PM 40.0050 -90.2490 24° Northeast 518 596 33,000  Level FlightAware ADS-B
Mon 07:07:44 PM 40.0920 -90.2010 23° Northeast 518 596 33,000  Level FlightAware ADS-B
Mon 07:08:26 PM 40.1860 -90.1470 24° Northeast 519 597 33,000  Level FlightAware ADS-B
Mon 07:09:10 PM 40.2810 -90.0930 23° Northeast 521 600 33,000  Level FlightAware ADS-B
Mon 07:09:46 PM 40.3590 -90.0490 23° Northeast 521 600 33,000  Level FlightAware ADS-B
Mon 07:10:26 PM 40.4490 -89.9980 23° Northeast 518 596 33,000 -512 Level FlightAware ADS-B
Mon 07:11:08 PM 40.5390 -89.9460 24° Northeast 511 588 32,300 -1,154 Descending FlightAware ADS-B
Mon 07:11:44 PM 40.6130 -89.9040 23° Northeast 502 578 31,500 -1,421 Descending FlightAware ADS-B
Mon 07:12:24 PM 40.7010 -89.8540 23° Northeast 491 565 30,500 -1,571 Descending FlightAware ADS-B
Mon 07:13:08 PM 40.7950 -89.7990 24° Northeast 486 559 29,300 -1,683 Descending FlightAware ADS-B
Mon 07:13:46 PM 40.8740 -89.7530 24° Northeast 486 559 28,200 -1,835 Descending FlightAware ADS-B
Mon 07:14:33 PM 40.9530 -89.6680 39° Northeast 490 564 26,700 -1,953 Descending FlightAware ADS-B
Mon 07:15:12 PM 41.0060 -89.5770 52° Northeast 480 552 25,400 -2,051 Descending FlightAware ADS-B
Mon 07:15:52 PM 41.0590 -89.4870 52° Northeast 467 537 24,000 -2,053 Descending FlightAware ADS-B
Mon 07:16:28 PM 41.1080 -89.4040 52° Northeast 455 524 22,800 -2,100 Descending FlightAware ADS-B
Mon 07:17:12 PM 41.1640 -89.3090 52° Northeast 446 513 21,200 -2,071 Descending FlightAware ADS-B
Mon 07:17:52 PM 41.2140 -89.2240 52° Northeast 439 505 19,900 -2,000 Descending FlightAware ADS-B
Mon 07:18:36 PM 41.2700 -89.1280 52° Northeast 424 488 18,400 -1,977 Descending FlightAware ADS-B
Mon 07:19:20 PM 41.3210 -89.0390 53° Northeast 413 475 17,000 -2,000 Descending FlightAware ADS-B
Mon 07:20:00 PM 41.3670 -88.9600 52° Northeast 401 461 15,600 -2,071 Descending FlightAware ADS-B
Mon 07:20:44 PM 41.4160 -88.8750 52° Northeast 388 447 14,100 -2,049 Descending FlightAware ADS-B
Mon 07:21:22 PM 41.4580 -88.8030 52° Northeast 382 440 12,800 -2,055 Descending FlightAware ADS-B
Mon 07:21:57 PM 41.4940 -88.7400 53° Northeast 373 429 11,600 -1,200 Descending FlightAware ADS-B
Mon 07:22:42 PM 41.5340 -88.6530 58° Northeast 354 407 11,200 -289 Descending FlightAware ADS-B
Mon 07:23:20 PM 41.5630 -88.5790 62° Northeast 356 410 11,200  Level FlightAware ADS-B
Mon 07:24:00 PM 41.5950 -88.5010 61° Northeast 358 412 11,200 -375 Level FlightAware ADS-B
Mon 07:24:40 PM 41.6310 -88.4290 56° Northeast 348 400 10,700 -750 Descending FlightAware ADS-B
Mon 07:25:20 PM 41.6700 -88.3620 52° Northeast 346 398 10,200 -375 Descending FlightAware ADS-B
Mon 07:26:00 PM 41.7100 -88.2930 52° Northeast 349 402 10,200 -209 Level FlightAware ADS-B
Mon 07:26:46 PM 41.7540 -88.2170 52° Northeast 325 374 9,900 -730 Descending FlightAware ADS-B
Mon 07:27:14 PM 41.7790 -88.1750 51° Northeast 299 344 9,300 -1,179 Descending FlightAware ADS-B
Mon 07:27:42 PM 41.8030 -88.1340 52° Northeast 292 336 8,800 -1,200 Descending FlightAware ADS-B
Mon 07:27:54 PM 41.8130 -88.1170 52° Northeast 292 336 8,500 -1,421 Descending FlightAware ADS-B
Mon 07:28:20 PM 41.8340 -88.0800 53° Northeast 293 337 7,900 -1,320 Descending FlightAware ADS-B
Mon 07:28:44 PM 41.8540 -88.0440 53° Northeast 291 335 7,400 -1,050 Descending FlightAware ADS-B
Mon 07:29:00 PM 41.8660 -88.0210 55° Northeast 291 335 7,200 -273 Descending FlightAware ADS-B
Mon 07:29:28 PM 41.8830 -87.9760 63° Northeast 293 337 7,200  Level FlightAware ADS-B
Mon 07:29:56 PM 41.8840 -87.9250 88° East 294 338 7,200  Level FlightAware ADS-B
Mon 07:30:19 PM 41.8840 -87.8860 90° East 274 315 7,200  Level FlightAware ADS-B
Mon 07:30:44 PM 41.8840 -87.8470 90° East 249 287 7,200 -870 Level FlightAware ADS-B
Mon 07:31:28 PM 41.8840 -87.7840 90° East 209 241 6,200 -1,393 Descending FlightAware ADS-B
Mon 07:31:40 PM 41.8840 -87.7710 90° East 206 237 5,900 -2,063 Descending FlightAware ADS-B
Mon 07:32:00 PM 41.8840 -87.7460 90° East 207 238 5,100 -2,250 Descending FlightAware ADS-B
Mon 07:32:20 PM 41.8900 -87.7190 73° East 211 243 4,400 -1,500 Descending FlightAware ADS-B
Mon 07:32:36 PM 41.9030 -87.7090 30° Northeast 209 241 4,200 -692 Descending FlightAware ADS-B
Mon 07:32:46 PM 41.9130 -87.7080 North 205 236 4,100 -900 Descending FlightAware ADS-B
Mon 07:33:16 PM 41.9360 -87.7220 336° Northwest 184 212 3,600 -1,241 Descending FlightAware ADS-B
Mon 07:33:44 PM 41.9540 -87.7420 320° Northwest 173 199 2,900 -1,227 Descending FlightAware ADS-B
Mon 07:34:00 PM 41.9630 -87.7540 315° West 161 185 2,700 -818 Descending FlightAware ADS-B
Mon 07:34:28 PM 41.9690 -87.7780 289° West 144 166 2,300 -778 Descending FlightAware ADS-B
Mon 07:34:54 PM 41.9690 -87.8010 270° West 135 155 2,000 -706 Descending FlightAware ADS-B
Mon 07:35:02 PM 41.9690 -87.8070 270° West 132 152 1,900 -750 Descending FlightAware ADS-B
Mon 07:35:34 PM 41.9690 -87.8330 270° West 135 155 1,500 -643 Descending FlightAware ADS-B
Mon 07:35:58 PM 41.9690 -87.8540 270° West 135 155 1,300 -643 Descending FlightAware ADS-B
Mon 07:36:30 PM 41.9690 -87.8810 270° West 133 153 900 -462 Descending FlightAware ADS-B
Mon 07:37:03 PM 41.9690 -87.9050 270° West 133 153 800 -182 Descending FlightAware ADS-B

Login

Don't have an account? Register now (free) for customized features, flight alerts, and more!